Time;durP1;ratioP1;P1;durP2;ratioP2;P2;SDS_P1;SDS_P2;PMS_P1;PMS_P2;Temp;Humidity;BMP_temperature;BMP_pressure;BME280_temperature;BME280_humidity;BME280_pressure;Samples;Min_cycle;Max_cycle;Signal;HPM_P1;HPM_P2
2021/01/04 00:01:45;;;;;;;49.73;25.82;;;;;;;2.17;86.79;101342.29;1735263;82;21200;-73
2021/01/04 00:04:45;;;;;;;44.60;23.80;;;;;;;2.19;86.89;101347.70;1737258;80;21197;-72
2021/01/04 00:08:06;;;;;;;47.17;23.52;;;;;;;2.22;86.94;101346.53;1737350;81;21168;-71
2021/01/04 00:11:09;;;;;;;39.35;21.25;;;;;;;2.16;86.99;101345.43;1737711;80;21378;-71
2021/01/04 00:14:05;;;;;;;45.98;25.57;;;;;;;2.20;87.06;101347.20;1733287;82;21129;-71
2021/01/04 00:16:50;;;;;;;47.10;24.05;;;;;;;2.21;87.09;101332.54;1736528;80;21133;-72
2021/01/04 00:19:56;;;;;;;41.35;21.62;;;;;;;2.21;87.12;101335.68;1733742;82;21783;-72
2021/01/04 00:22:35;;;;;;;46.58;24.90;;;;;;;2.16;87.13;101332.75;1737898;80;21145;-72
2021/01/04 00:25:36;;;;;;;46.75;23.87;;;;;;;2.17;87.23;101329.11;1742517;82;21912;-72
2021/01/04 00:28:11;;;;;;;37.98;21.52;;;;;;;2.22;87.35;101328.08;1740169;81;21193;-71
2021/01/04 00:31:05;;;;;;;42.88;23.00;;;;;;;2.23;87.34;101325.75;1737530;82;21574;-71
2021/01/04 00:33:47;;;;;;;35.73;20.57;;;;;;;2.22;87.33;101317.53;1724903;81;21158;-71
2021/01/04 00:36:33;;;;;;;39.50;22.67;;;;;;;2.27;87.37;101317.31;1758424;79;22868;-72
2021/01/04 00:39:30;;;;;;;43.02;22.87;;;;;;;2.19;87.39;101320.53;1708859;81;21140;-72
2021/01/04 00:42:08;;;;;;;41.02;22.45;;;;;;;2.18;87.45;101316.27;1713062;83;21377;-71
2021/01/04 00:45:01;;;;;;;42.73;23.62;;;;;;;2.15;87.50;101315.32;1706236;82;21215;-72
2021/01/04 00:48:06;;;;;;;43.90;24.37;;;;;;;2.19;87.59;101325.80;1705607;82;21623;-72
2021/01/04 00:51:11;;;;;;;35.73;20.30;;;;;;;2.26;87.64;101318.80;1715989;82;21841;-71
2021/01/04 00:53:44;;;;;;;40.08;21.30;;;;;;;2.26;87.58;101322.25;1711251;82;21133;-72
2021/01/04 00:56:40;;;;;;;43.48;24.02;;;;;;;2.25;87.66;101329.03;1681658;83;21412;-72
2021/01/04 00:59:25;;;;;;;47.80;26.45;;;;;;;2.32;87.70;101336.52;1677258;83;21180;-72
2021/01/04 01:02:13;;;;;;;48.90;26.15;;;;;;;2.40;87.73;101333.77;1706169;82;21121;-72
2021/01/04 01:05:08;;;;;;;34.85;20.25;;;;;;;2.47;87.71;101330.73;1680279;83;21678;-72
2021/01/04 01:08:12;;;;;;;43.30;24.00;;;;;;;2.54;87.63;101330.31;1714946;82;21161;-72
2021/01/04 01:10:51;;;;;;;43.58;23.67;;;;;;;2.54;87.53;101323.72;1700841;82;21216;-72
2021/01/04 01:13:53;;;;;;;48.58;25.68;;;;;;;2.61;87.47;101328.27;1708776;82;21195;-72
2021/01/04 01:16:28;;;;;;;;;;;;;;;2.61;87.41;101325.12;1654421;85;21575;-72
2021/01/04 01:19:22;;;;;;;37.67;21.07;;;;;;;2.58;87.31;101322.84;1638888;85;22075;-71
2021/01/04 01:21:51;;;;;;;44.90;24.27;;;;;;;2.54;87.29;101332.95;1667020;84;21487;-72
2021/01/04 01:24:20;;;;;;;41.60;23.38;;;;;;;2.58;87.32;101339.48;1668539;84;21400;-72
2021/01/04 01:27:11;;;;;;;42.13;22.27;;;;;;;2.62;87.31;101315.37;1667485;84;21159;-72
2021/01/04 01:30:34;;;;;;;45.30;22.77;;;;;;;2.63;87.23;101311.73;1674149;84;21173;-72
2021/01/04 01:33:34;;;;;;;42.73;22.82;;;;;;;2.61;87.20;101319.84;1671178;84;21136;-72
2021/01/04 01:36:41;;;;;;;42.03;22.93;;;;;;;2.54;87.11;101311.85;1670927;85;21144;-72
2021/01/04 01:39:55;;;;;;;46.20;24.25;;;;;;;2.48;87.12;101313.91;1681955;85;22371;-72
2021/01/04 01:43:03;;;;;;;44.13;23.87;;;;;;;2.47;87.19;101316.23;1709373;82;21184;-72
2021/01/04 01:45:49;;;;;;;40.33;22.32;;;;;;;2.47;87.21;101325.94;1700519;83;21546;-71
2021/01/04 01:48:46;;;;;;;43.05;22.58;;;;;;;2.49;87.25;101335.81;1707380;83;21200;-72
2021/01/04 01:51:36;;;;;;;43.73;23.77;;;;;;;2.49;87.22;101331.35;1710343;82;21173;-71
2021/01/04 01:54:59;;;;;;;43.47;24.20;;;;;;;2.47;87.22;101316.71;1759536;79;24468;-72
2021/01/04 01:57:53;;;;;;;38.02;22.05;;;;;;;2.34;87.27;101319.53;1725300;82;21655;-71
2021/01/04 02:00:43;;;;;;;40.28;22.35;;;;;;;2.35;87.42;101315.06;1732628;82;21351;-73
2021/01/04 02:03:37;;;;;;;38.45;22.00;;;;;;;2.36;87.46;101312.73;1752052;81;21147;-72
2021/01/04 02:06:26;;;;;;;39.92;22.05;;;;;;;2.38;87.51;101316.52;1759861;81;21157;-71
2021/01/04 02:09:02;;;;;;;36.93;21.50;;;;;;;2.40;87.58;101308.72;1755829;81;21579;-72
2021/01/04 02:12:09;;;;;;;41.20;22.82;;;;;;;2.41;87.57;101314.34;1762976;81;21658;-72
2021/01/04 02:15:01;;;;;;;37.03;20.55;;;;;;;2.38;87.61;101321.29;1763003;81;21459;-72
2021/01/04 02:18:00;;;;;;;40.35;21.65;;;;;;;2.40;87.63;101303.45;1748405;81;21186;-72
2021/01/04 02:21:06;;;;;;;39.80;22.45;;;;;;;2.40;87.71;101310.05;1691743;81;21646;-72
2021/01/04 02:24:08;;;;;;;39.95;21.62;;;;;;;2.43;87.75;101315.45;1760904;81;21104;-72
2021/01/04 02:26:39;;;;;;;28.87;16.50;;;;;;;2.40;87.72;101304.77;1753020;81;21488;-71
2021/01/04 02:29:14;;;;;;;38.65;21.87;;;;;;;2.44;87.77;101298.66;1753794;81;22382;-73
2021/01/04 02:31:49;;;;;;;33.63;19.73;;;;;;;2.40;87.77;101307.41;1744093;81;21176;-72
2021/01/04 02:34:20;;;;;;;39.20;23.35;;;;;;;2.43;87.88;101321.54;1758702;81;21116;-72
2021/01/04 02:36:55;;;;;;;36.55;21.37;;;;;;;2.48;87.91;101317.05;1747284;81;21064;-72
2021/01/04 02:39:37;;;;;;;34.92;20.60;;;;;;;2.56;87.91;101315.10;1750088;81;21725;-72
2021/01/04 02:42:28;;;;;;;;;;;;;;;2.63;87.83;101319.64;1752734;81;21463;-71
2021/01/04 02:44:57;;;;;;;33.50;20.05;;;;;;;2.69;87.87;101329.45;1761542;81;20610;-71
2021/01/04 02:48:02;;;;;;;34.83;21.45;;;;;;;2.72;87.81;101327.26;1740968;81;21211;-72
2021/01/04 02:51:01;;;;;;;32.38;19.75;;;;;;;2.74;87.74;101327.91;1758351;81;21611;-72
2021/01/04 02:53:41;;;;;;;36.28;21.15;;;;;;;2.78;87.66;101324.39;1761138;81;21182;-71
2021/01/04 02:56:36;;;;;;;29.72;18.12;;;;;;;2.82;87.59;101324.32;1763483;81;21567;-72
2021/01/04 02:59:32;;;;;;;34.20;20.43;;;;;;;2.81;87.44;101320.05;1749479;81;21144;-72
2021/01/04 03:02:08;;;;;;;33.05;20.55;;;;;;;2.76;87.37;101328.55;1766293;81;21594;-72
2021/01/04 03:05:00;;;;;;;30.87;18.70;;;;;;;2.80;87.33;101319.75;1835476;76;23381;-72
2021/01/04 03:07:32;;;;;;;31.62;18.95;;;;;;;2.76;87.28;101319.78;1806400;78;21160;-72
2021/01/04 03:10:18;;;;;;;34.78;22.07;;;;;;;2.73;87.23;101322.31;1831737;77;21356;-72
2021/01/04 03:12:51;;;;;;;33.65;19.32;;;;;;;2.71;87.26;101319.04;1834732;77;21164;-72
2021/01/04 03:15:27;;;;;;;31.20;18.82;;;;;;;2.74;87.29;101318.67;1843295;75;21039;-72
2021/01/04 03:18:30;;;;;;;30.17;19.57;;;;;;;2.78;87.24;101317.79;1821759;77;21211;-72
2021/01/04 03:21:01;;;;;;;30.82;18.80;;;;;;;2.84;87.24;101317.05;1836787;76;21176;-72
2021/01/04 03:23:30;;;;;;;34.25;21.50;;;;;;;2.86;87.17;101311.06;1812734;75;22201;-73
2021/01/04 03:26:06;;;;;;;31.65;18.92;;;;;;;2.82;87.05;101316.41;1829573;77;21089;-72
2021/01/04 03:28:37;;;;;;;28.47;18.32;;;;;;;2.84;87.11;101326.28;1848728;77;21117;-72
2021/01/04 03:31:06;;;;;;;33.50;20.37;;;;;;;2.89;87.09;101326.52;1837011;77;21143;-72
2021/01/04 03:33:35;;;;;;;33.05;19.48;;;;;;;2.95;87.05;101327.60;1850295;75;21160;-72
2021/01/04 03:36:06;;;;;;;27.32;17.40;;;;;;;2.99;87.00;101325.70;1835118;76;21375;-70
2021/01/04 03:38:37;;;;;;;32.42;19.12;;;;;;;3.03;86.92;101317.75;1820765;77;21184;-71
2021/01/04 03:41:06;;;;;;;26.62;17.40;;;;;;;3.07;86.84;101320.83;1821977;78;21120;-70
2021/01/04 03:43:34;;;;;;;29.87;18.70;;;;;;;3.10;86.76;101317.00;1836715;75;21192;-71
2021/01/04 03:46:02;;;;;;;31.05;18.40;;;;;;;3.11;86.65;101312.84;1811851;76;21175;-71
2021/01/04 03:48:30;;;;;;;30.70;19.15;;;;;;;3.13;86.60;101307.39;1825268;78;21158;-72
2021/01/04 03:50:57;;;;;;;31.73;19.30;;;;;;;3.14;86.51;101307.70;1828302;78;21092;-72
2021/01/04 03:53:25;;;;;;;27.32;16.93;;;;;;;3.14;86.45;101307.70;1809150;78;21576;-72
2021/01/04 03:55:53;;;;;;;28.30;18.05;;;;;;;3.16;86.36;101309.14;1813672;76;21117;-72
2021/01/04 03:58:21;;;;;;;28.40;17.52;;;;;;;3.17;86.29;101306.81;1793087;78;21204;-72
2021/01/04 04:00:48;;;;;;;30.05;17.85;;;;;;;3.18;86.22;101307.63;1813163;77;21375;-73
2021/01/04 04:03:16;;;;;;;29.65;17.23;;;;;;;3.16;86.12;101303.86;1810744;78;21127;-71
2021/01/04 04:05:44;;;;;;;25.88;15.75;;;;;;;3.15;86.13;101310.64;1813152;76;21120;-73
2021/01/04 04:08:11;;;;;;;27.27;17.60;;;;;;;3.19;86.08;101307.92;1820288;77;21247;-72
2021/01/04 04:10:39;;;;;;;26.33;16.15;;;;;;;3.20;85.97;101297.70;1788974;78;21056;-72
2021/01/04 04:13:07;;;;;;;26.23;15.08;;;;;;;3.24;85.90;101301.59;1813945;78;22365;-71
2021/01/04 04:15:45;;;;;;;26.23;15.90;;;;;;;3.21;85.82;101295.36;1813060;77;21148;-71
2021/01/04 04:18:13;;;;;;;25.62;15.40;;;;;;;3.16;85.75;101293.78;1803888;78;21294;-72
2021/01/04 04:20:41;;;;;;;26.30;16.93;;;;;;;3.13;85.74;101292.88;1809617;78;21096;-72
2021/01/04 04:23:09;;;;;;;27.30;17.05;;;;;;;3.14;85.75;101293.98;1818024;78;21198;-71
2021/01/04 04:25:36;;;;;;;24.85;15.40;;;;;;;3.17;85.78;101294.12;1813934;78;21374;-71
2021/01/04 04:28:06;;;;;;;24.92;15.43;;;;;;;3.17;85.68;101298.08;1819866;78;21143;-71
2021/01/04 04:30:33;;;;;;;23.32;13.22;;;;;;;3.16;85.69;101289.83;1820514;78;21536;-70
2021/01/04 04:33:01;;;;;;;24.15;15.13;;;;;;;3.18;85.64;101289.14;1818826;77;21670;-72
2021/01/04 04:35:29;;;;;;;25.52;16.27;;;;;;;3.13;85.61;101284.95;1812598;78;21140;-72
2021/01/04 04:37:59;;;;;;;24.60;15.15;;;;;;;3.13;85.65;101296.83;1820369;78;21373;-72
2021/01/04 04:40:32;;;;;;;27.35;15.13;;;;;;;3.13;85.65;101291.55;1805397;78;21171;-72
2021/01/04 04:43:11;;;;;;;21.23;14.47;;;;;;;3.11;85.61;101293.55;1808673;78;21178;-72
2021/01/04 04:45:41;;;;;;;25.27;15.83;;;;;;;3.13;85.69;101291.55;1836097;75;22541;-72
2021/01/04 04:48:35;;;;;;;23.35;14.98;;;;;;;3.19;85.73;101297.37;1833971;77;21042;-73
2021/01/04 04:51:39;;;;;;;26.10;15.58;;;;;;;3.26;85.75;101302.22;1846372;77;21350;-72
2021/01/04 04:54:44;;;;;;;21.17;13.45;;;;;;;3.27;85.66;101307.30;1851932;77;21086;-72
2021/01/04 04:57:35;;;;;;;23.42;14.13;;;;;;;3.31;85.58;101293.22;1821507;77;21540;-72
2021/01/04 05:00:30;;;;;;;22.90;15.05;;;;;;;3.34;85.52;101294.16;1715755;81;21245;-72
2021/01/04 05:03:26;;;;;;;22.50;14.10;;;;;;;3.33;85.44;101289.89;1815957;78;21163;-72
2021/01/04 05:06:20;;;;;;;24.85;14.63;;;;;;;3.30;85.43;101290.27;1814855;77;21261;-72
2021/01/04 05:09:37;;;;;;;23.35;14.65;;;;;;;3.26;85.36;101289.84;1813580;78;21076;-73
2021/01/04 05:12:13;;;;;;;25.00;15.30;;;;;;;3.28;85.37;101284.35;1821728;77;21132;-72
2021/01/04 05:14:54;;;;;;;22.93;15.00;;;;;;;3.27;85.34;101280.90;1811449;78;21143;-71
2021/01/04 05:18:07;;;;;;;26.20;15.53;;;;;;;3.29;85.36;101276.26;1814035;78;21144;-71
2021/01/04 05:20:50;;;;;;;;;;;;;;;3.27;85.26;101281.41;1848010;76;21284;-72
2021/01/04 05:23:43;;;;;;;26.15;16.15;;;;;;;3.26;85.26;101286.38;1812868;78;20687;-73
2021/01/04 05:26:19;;;;;;;24.23;15.38;;;;;;;3.26;85.31;101285.06;1805935;78;21203;-71
2021/01/04 05:29:13;;;;;;;24.98;15.08;;;;;;;3.25;85.32;101286.05;1805441;78;21119;-72
2021/01/04 05:32:03;;;;;;;23.12;14.60;;;;;;;3.24;85.29;101288.39;1838558;76;21158;-71
2021/01/04 05:34:45;;;;;;;24.55;15.10;;;;;;;3.27;85.33;101297.25;1811161;78;21208;-72
2021/01/04 05:37:40;;;;;;;23.98;15.30;;;;;;;3.29;85.33;101288.61;1802972;77;21195;-72
2021/01/04 05:40:41;;;;;;;24.72;15.18;;;;;;;3.30;85.30;101269.14;1801598;75;21556;-72
2021/01/04 05:43:49;;;;;;;25.48;16.17;;;;;;;3.30;85.32;101279.70;1839042;77;21163;-73
2021/01/04 05:46:31;;;;;;;25.88;16.62;;;;;;;3.31;85.27;101278.69;1828434;77;21160;-73
2021/01/04 05:49:32;;;;;;;26.80;15.73;;;;;;;3.35;85.28;101279.12;1813710;78;22635;-71
2021/01/04 05:51:59;;;;;;;26.70;16.30;;;;;;;3.33;85.33;101280.65;1788343;78;21255;-71
2021/01/04 05:54:33;;;;;;;27.27;16.65;;;;;;;3.33;85.27;101293.85;1782702;80;21458;-71
2021/01/04 05:57:12;;;;;;;27.98;17.62;;;;;;;3.34;85.24;101295.48;1747867;80;21258;-71
2021/01/04 05:59:54;;;;;;;23.45;14.90;;;;;;;3.34;85.25;101290.70;1764448;79;21160;-72
2021/01/04 06:05:14;;;;;;;26.43;16.90;;;;;;;3.41;85.20;101285.78;1837759;76;22163;-73
2021/01/04 06:07:46;;;;;;;29.50;18.05;;;;;;;3.35;85.21;101283.89;1807225;77;21156;-72
2021/01/04 06:10:35;;;;;;;27.82;17.48;;;;;;;3.31;85.18;101289.25;1840057;77;21360;-72
2021/01/04 06:13:05;;;;;;;26.70;16.52;;;;;;;3.31;85.18;101297.17;1846813;77;21674;-71
2021/01/04 06:15:37;;;;;;;27.27;16.62;;;;;;;3.34;85.23;101302.08;1806304;78;21612;-71
2021/01/04 06:18:36;;;;;;;26.45;17.10;;;;;;;3.36;85.28;101304.03;1815505;77;21215;-72
2021/01/04 06:21:21;;;;;;;27.90;17.12;;;;;;;3.38;85.28;101307.28;1750524;80;21223;-74
2021/01/04 06:23:51;;;;;;;27.17;17.25;;;;;;;3.42;85.25;101302.43;1748413;79;21207;-72
2021/01/04 06:26:22;;;;;;;24.95;16.20;;;;;;;3.42;85.17;101304.59;1746004;81;21225;-72
2021/01/04 06:29:06;;;;;;;25.88;16.67;;;;;;;3.44;85.18;101314.45;1755920;79;21160;-73
2021/01/04 06:31:44;;;;;;;26.07;17.05;;;;;;;3.49;85.17;101318.66;1774535;79;21132;-72
2021/01/04 06:34:24;;;;;;;28.65;18.40;;;;;;;3.49;85.12;101308.61;1773444;79;21198;-73
2021/01/04 06:36:55;;;;;;;28.85;17.87;;;;;;;3.51;85.13;101303.93;1747432;80;21459;-72
2021/01/04 06:39:33;;;;;;;25.20;16.48;;;;;;;3.50;85.02;101308.91;1759164;79;21164;-72
2021/01/04 06:42:22;;;;;;;27.37;17.82;;;;;;;3.48;84.97;101310.91;1768747;79;21199;-73
2021/01/04 06:45:26;;;;;;;30.77;19.10;;;;;;;3.44;84.96;101311.80;1743726;81;21654;-73
2021/01/04 06:48:22;;;;;;;28.42;16.65;;;;;;;3.40;84.95;101309.75;1761125;80;27333;-73
2021/01/04 06:50:59;;;;;;;25.75;16.67;;;;;;;3.34;84.98;101307.36;1767913;80;21592;-73
2021/01/04 06:53:35;;;;;;;24.87;16.95;;;;;;;3.27;85.03;101315.73;1736444;80;21175;-73
2021/01/04 06:56:11;;;;;;;29.63;17.90;;;;;;;3.32;85.17;101323.88;1748499;79;22389;-71
2021/01/04 06:59:13;;;;;;;28.35;17.50;;;;;;;3.38;85.24;101327.09;1753912;80;21187;-73
2021/01/04 07:02:16;;;;;;;30.43;19.42;;;;;;;3.42;85.23;101324.87;1769641;80;21121;-72
2021/01/04 07:05:19;;;;;;;26.70;16.40;;;;;;;3.44;85.22;101322.88;1716858;80;21280;-73
2021/01/04 07:08:12;;;;;;;28.65;17.60;;;;;;;3.45;85.13;101325.31;1747278;81;21188;-72
2021/01/04 07:10:51;;;;;;;26.35;17.12;;;;;;;3.46;85.18;101325.64;1754839;80;21156;-73
2021/01/04 07:13:45;;;;;;;27.10;16.97;;;;;;;3.53;85.19;101316.45;1753163;80;21164;-73
2021/01/04 07:16:28;;;;;;;27.37;17.27;;;;;;;3.51;85.09;101316.62;1741579;80;21121;-72
2021/01/04 07:19:19;;;;;;;25.27;15.28;;;;;;;3.47;85.14;101318.02;1759516;80;22072;-72
2021/01/04 07:21:54;;;;;;;24.92;16.15;;;;;;;3.43;85.13;101315.46;1779818;79;21203;-71
2021/01/04 07:24:37;;;;;;;28.07;17.62;;;;;;;3.43;85.22;101322.06;1738195;80;21293;-73
2021/01/04 07:27:22;;;;;;;28.40;17.55;;;;;;;3.43;85.30;101323.38;1755407;80;21271;-73
2021/01/04 07:30:21;;;;;;;25.77;16.62;;;;;;;3.47;85.42;101331.73;1755580;81;21162;-73
2021/01/04 07:33:06;;;;;;;24.72;16.17;;;;;;;3.46;85.39;101322.19;1762217;80;21568;-73
2021/01/04 07:35:52;;;;;;;29.02;18.42;;;;;;;3.45;85.41;101323.99;1744830;81;21084;-72
2021/01/04 07:38:40;;;;;;;29.60;18.70;;;;;;;3.44;85.48;101320.23;1758916;81;22280;-73
2021/01/04 07:41:29;;;;;;;24.18;16.23;;;;;;;3.49;85.57;101318.66;1752443;80;21136;-72
2021/01/04 07:44:36;;;;;;;29.42;18.80;;;;;;;3.52;85.58;101313.48;1769149;80;21176;-73
2021/01/04 07:47:30;;;;;;;27.10;17.30;;;;;;;3.55;85.59;101313.61;1749136;80;21819;-73
2021/01/04 07:50:38;;;;;;;29.25;19.05;;;;;;;3.59;85.59;101307.77;1749953;80;21140;-72
2021/01/04 07:53:49;;;;;;;30.15;19.30;;;;;;;3.61;85.62;101314.16;1750338;80;21919;-73
2021/01/04 07:56:52;;;;;;;27.10;17.15;;;;;;;3.67;85.66;101316.04;1756143;81;21750;-73
2021/01/04 07:59:47;;;;;;;26.62;17.40;;;;;;;3.73;85.59;101312.13;1749781;80;21616;-73
2021/01/04 08:02:55;;;;;;;30.00;18.17;;;;;;;3.76;85.55;101306.45;1751436;81;21377;-72
2021/01/04 08:05:55;;;;;;;31.35;20.55;;;;;;;3.78;85.49;101310.21;1748730;81;21206;-72
2021/01/04 08:08:46;;;;;;;29.40;19.55;;;;;;;3.78;85.49;101311.53;1765182;80;21059;-72
2021/01/04 08:11:48;;;;;;;27.75;18.50;;;;;;;3.87;85.47;101316.17;1743650;81;21069;-72
2021/01/04 08:14:48;;;;;;;28.50;18.50;;;;;;;3.90;85.35;101319.75;1736259;79;21132;-74
2021/01/04 08:17:46;;;;;;;32.93;19.92;;;;;;;3.96;85.44;101311.05;1749522;81;21828;-73
2021/01/04 08:20:17;;;;;;;29.42;19.10;;;;;;;3.94;85.27;101317.02;1747756;80;21215;-74
2021/01/04 08:23:27;;;;;;;28.77;19.15;;;;;;;3.89;85.26;101320.27;1756592;80;21064;-73
2021/01/04 08:26:21;;;;;;;24.80;16.52;;;;;;;3.93;85.31;101314.89;1746420;81;21619;-73
2021/01/04 08:29:27;;;;;;;30.88;19.17;;;;;;;3.95;85.25;101314.71;1746121;81;21639;-74
2021/01/04 08:32:13;;;;;;;29.63;20.57;;;;;;;3.95;85.24;101318.16;1753717;81;21207;-72
2021/01/04 08:34:43;;;;;;;31.70;20.15;;;;;;;3.95;85.23;101310.23;1761724;81;21631;-72
2021/01/04 08:37:16;;;;;;;28.07;19.57;;;;;;;4.01;85.21;101313.91;1741440;81;21209;-72
2021/01/04 08:39:49;;;;;;;29.48;18.52;;;;;;;4.08;85.15;101309.98;1745552;81;21113;-72
2021/01/04 08:42:28;;;;;;;27.02;17.02;;;;;;;4.13;85.13;101312.86;1753417;80;21172;-74
2021/01/04 08:45:03;;;;;;;29.52;20.10;;;;;;;4.20;85.11;101316.36;1750466;81;21377;-72
2021/01/04 08:47:36;;;;;;;31.80;20.92;;;;;;;4.20;84.96;101312.39;1752155;81;21563;-72
2021/01/04 08:50:24;;;;;;;28.05;18.87;;;;;;;4.18;84.88;101311.27;1753001;80;21220;-75
2021/01/04 08:52:56;;;;;;;32.48;20.48;;;;;;;4.21;84.80;101317.50;1757278;80;21164;-73
2021/01/04 08:55:31;;;;;;;31.30;19.87;;;;;;;4.17;84.69;101318.06;1751168;81;21659;-73
2021/01/04 08:58:25;;;;;;;30.72;20.50;;;;;;;4.18;84.73;101311.27;1753957;81;21386;-73
2021/01/04 09:01:03;;;;;;;29.32;19.15;;;;;;;4.23;84.72;101309.35;1748062;81;21129;-73
2021/01/04 09:03:34;;;;;;;25.75;17.42;;;;;;;4.32;84.64;101301.56;1750384;80;21189;-72
2021/01/04 09:06:24;;;;;;;28.20;18.07;;;;;;;4.43;84.53;101310.76;1738587;81;21071;-72
2021/01/04 09:09:09;;;;;;;29.50;19.73;;;;;;;4.48;84.43;101308.86;1749351;81;21164;-72
2021/01/04 09:11:51;;;;;;;28.12;19.00;;;;;;;4.50;84.40;101304.17;1761424;81;22383;-73
2021/01/04 09:14:25;;;;;;;30.00;19.42;;;;;;;4.56;84.24;101310.81;1759670;80;21224;-74
2021/01/04 09:16:53;;;;;;;31.02;20.35;;;;;;;4.56;84.12;101307.34;1745306;80;21236;-73
2021/01/04 09:19:25;;;;;;;31.20;20.05;;;;;;;4.58;84.01;101301.36;1745564;80;21155;-72
2021/01/04 09:22:08;;;;;;;31.62;21.25;;;;;;;4.59;83.80;101299.02;1752441;80;21507;-72
2021/01/04 09:24:46;;;;;;;32.07;21.20;;;;;;;4.61;83.54;101298.32;1794093;78;22173;-72
2021/01/04 09:27:32;;;;;;;31.52;19.48;;;;;;;4.55;83.38;101296.47;1772327;80;21120;-72
2021/01/04 09:30:05;;;;;;;34.92;22.25;;;;;;;4.55;83.26;101299.11;1757351;80;22535;-71
2021/01/04 09:32:42;;;;;;;34.25;21.93;;;;;;;4.51;83.18;101303.98;1770435;78;21608;-72
2021/01/04 09:35:24;;;;;;;35.43;22.45;;;;;;;4.51;83.14;101307.11;1699213;83;21163;-72
2021/01/04 09:38:11;;;;;;;30.90;19.50;;;;;;;4.52;82.96;101307.45;1746132;80;21152;-73
2021/01/04 09:40:39;;;;;;;29.35;18.07;;;;;;;4.51;82.94;101305.31;1708155;81;21591;-73
2021/01/04 09:43:11;;;;;;;35.28;21.40;;;;;;;4.49;82.88;101290.64;1739786;81;21291;-73
2021/01/04 09:45:40;;;;;;;38.70;22.70;;;;;;;4.49;82.86;101292.78;1742003;81;21156;-72
2021/01/04 09:48:28;;;;;;;34.78;22.27;;;;;;;4.54;82.85;101293.02;1737777;81;21616;-72
2021/01/04 09:51:08;;;;;;;36.15;22.48;;;;;;;4.58;82.85;101288.13;1716249;81;21176;-71
2021/01/04 09:53:38;;;;;;;35.73;22.25;;;;;;;4.58;82.73;101285.48;1713419;82;21619;-73
2021/01/04 09:56:11;;;;;;;38.08;22.60;;;;;;;4.57;82.61;101286.48;1719492;81;21421;-72
2021/01/04 09:58:40;;;;;;;36.77;22.75;;;;;;;4.59;82.65;101283.14;1709892;81;21205;-72
2021/01/04 10:01:17;;;;;;;37.23;24.18;;;;;;;4.63;82.59;101284.37;1730766;81;21169;-72
2021/01/04 10:03:55;;;;;;;36.30;23.65;;;;;;;4.65;82.54;101285.80;1714423;81;21679;-74
2021/01/04 10:06:24;;;;;;;36.88;23.18;;;;;;;4.66;82.40;101279.48;1714052;83;21145;-72
2021/01/04 10:08:52;;;;;;;40.17;23.98;;;;;;;4.66;82.22;101274.71;1713822;81;21376;-71
2021/01/04 10:11:22;;;;;;;39.98;24.00;;;;;;;4.63;82.12;101275.92;1736581;81;21266;-71
2021/01/04 10:13:50;;;;;;;46.00;26.02;;;;;;;4.61;82.04;101281.13;1717404;82;21237;-72
2021/01/04 10:16:23;;;;;;;35.85;22.48;;;;;;;4.57;81.99;101282.52;1749123;80;21220;-71
2021/01/04 10:19:14;;;;;;;41.30;24.45;;;;;;;4.54;81.94;101286.40;1720733;83;21185;-73
2021/01/04 10:22:00;;;;;;;43.50;24.92;;;;;;;4.50;81.92;101282.49;1725558;82;21361;-72
2021/01/04 10:24:36;;;;;;;43.92;24.70;;;;;;;4.47;81.92;101278.92;1706155;82;21235;-72
2021/01/04 10:27:06;;;;;;;44.63;26.73;;;;;;;4.44;82.01;101276.67;1693907;83;21616;-72
2021/01/04 10:29:42;;;;;;;49.67;28.50;;;;;;;4.39;82.00;101273.83;1688700;83;21695;-73
2021/01/04 10:32:15;;;;;;;41.65;25.40;;;;;;;4.37;82.11;101271.36;1692854;83;21224;-73
2021/01/04 10:34:45;;;;;;;37.17;22.48;;;;;;;4.38;82.11;101271.69;1690895;83;21402;-72
2021/01/04 10:37:38;;;;;;;42.85;25.70;;;;;;;4.36;82.13;101265.77;1695048;83;21173;-72
2021/01/04 10:40:14;;;;;;;47.03;26.60;;;;;;;4.28;82.20;101269.93;1699265;83;21633;-72
2021/01/04 10:42:43;;;;;;;35.05;20.32;;;;;;;4.21;82.39;101270.38;1711678;81;21220;-72
2021/01/04 10:45:19;;;;;;;41.50;24.82;;;;;;;4.21;82.62;101269.06;1717573;83;21168;-72
2021/01/04 10:47:57;;;;;;;39.53;23.83;;;;;;;4.27;82.69;101268.78;1713460;81;21371;-72
2021/01/04 10:50:41;;;;;;;46.28;27.55;;;;;;;4.35;82.74;101269.44;1712921;81;21645;-72
2021/01/04 10:53:16;;;;;;;36.48;22.65;;;;;;;4.36;82.66;101271.06;1714771;83;22143;-72
2021/01/04 10:55:54;;;;;;;44.77;25.77;;;;;;;4.38;82.65;101279.62;1702972;83;21161;-72
2021/01/04 10:58:30;;;;;;;40.55;24.23;;;;;;;4.41;82.66;101279.23;1720507;81;21295;-73
2021/01/04 11:01:09;;;;;;;37.42;22.37;;;;;;;4.50;82.66;101279.84;1710676;81;21384;-73
2021/01/04 11:03:59;;;;;;;39.85;25.17;;;;;;;4.58;82.54;101278.88;1709125;83;21224;-73
2021/01/04 11:06:30;;;;;;;38.98;23.18;;;;;;;4.62;82.50;101277.45;1708481;81;21172;-72
2021/01/04 11:08:58;;;;;;;41.90;26.37;;;;;;;4.68;82.42;101282.77;1712145;83;21208;-72
2021/01/04 11:11:36;;;;;;;44.60;26.40;;;;;;;4.71;82.31;101282.88;1720251;81;21214;-73
2021/01/04 11:14:17;;;;;;;38.73;22.95;;;;;;;4.78;82.27;101283.70;1703790;81;21256;-73
2021/01/04 11:16:53;;;;;;;41.28;23.95;;;;;;;4.86;82.15;101288.80;1702448;83;21219;-72
2021/01/04 11:19:33;;;;;;;42.95;25.57;;;;;;;4.91;82.02;101280.27;1695552;83;21208;-72
2021/01/04 11:22:26;;;;;;;41.20;24.67;;;;;;;4.98;81.92;101276.30;1713535;81;21647;-73
2021/01/04 11:24:55;;;;;;;41.23;24.63;;;;;;;5.01;81.77;101270.61;1696270;83;21736;-72
2021/01/04 11:27:24;;;;;;;39.65;24.10;;;;;;;5.04;81.64;101269.69;1726631;81;21233;-73
2021/01/04 11:29:51;;;;;;;40.00;23.38;;;;;;;5.08;81.53;101264.80;1667529;83;21287;-73
2021/01/04 11:32:22;;;;;;;36.03;22.25;;;;;;;5.15;81.43;101270.91;1729185;81;21412;-72
2021/01/04 11:34:54;;;;;;;38.73;23.87;;;;;;;5.22;81.27;101275.69;1713012;82;21195;-72
2021/01/04 11:37:23;;;;;;;42.70;25.47;;;;;;;5.23;81.05;101269.40;1726426;81;21177;-72
2021/01/04 11:39:52;;;;;;;31.50;20.35;;;;;;;5.18;80.76;101268.67;1686615;85;21834;-72
2021/01/04 11:42:20;;;;;;;39.67;24.00;;;;;;;5.14;80.57;101265.31;1728364;81;21205;-72
2021/01/04 11:44:48;;;;;;;37.33;22.93;;;;;;;5.03;80.45;101260.09;1686526;83;21130;-72
2021/01/04 11:47:22;;;;;;;36.23;20.80;;;;;;;4.94;80.34;101263.47;1727563;81;21586;-71
2021/01/04 11:49:50;;;;;;;44.63;25.40;;;;;;;4.88;80.30;101254.20;1731253;81;21147;-72
2021/01/04 11:52:18;;;;;;;39.75;23.55;;;;;;;4.81;80.38;101263.97;1726357;81;21452;-72
2021/01/04 11:54:46;;;;;;;41.90;25.05;;;;;;;4.81;80.45;101252.87;1727821;81;21185;-72
2021/01/04 11:57:13;;;;;;;42.95;26.10;;;;;;;4.84;80.48;101250.33;1670759;85;21600;-71
2021/01/04 11:59:42;;;;;;;40.85;23.95;;;;;;;4.86;80.52;101253.05;1725082;81;21648;-73
2021/01/04 12:02:10;;;;;;;39.15;22.15;;;;;;;4.82;80.24;101247.06;1679794;83;21641;-72
2021/01/04 12:04:38;;;;;;;41.58;23.90;;;;;;;4.71;80.26;101244.50;1682481;83;21751;-71
2021/01/04 12:07:08;;;;;;;44.48;25.95;;;;;;;4.63;80.42;101256.58;1685240;83;21217;-72
2021/01/04 12:09:37;;;;;;;47.88;27.45;;;;;;;4.62;80.61;101257.61;1685510;83;21142;-71
2021/01/04 12:12:08;;;;;;;45.38;25.45;;;;;;;4.67;80.71;101263.09;1678717;85;21658;-73
2021/01/04 12:14:36;;;;;;;43.55;25.62;;;;;;;4.70;80.69;101262.70;1726832;81;21297;-72
2021/01/04 12:17:08;;;;;;;35.50;20.12;;;;;;;4.69;80.63;101270.34;1686898;85;21780;-72
2021/01/04 12:19:35;;;;;;;48.35;26.75;;;;;;;4.70;80.57;101271.97;1727662;81;21216;-72
2021/01/04 12:22:06;;;;;;;47.30;26.48;;;;;;;4.61;80.57;101275.84;1715193;81;21173;-72
2021/01/04 12:24:36;;;;;;;49.20;27.75;;;;;;;4.59;80.70;101275.20;1724811;82;21158;-71
2021/01/04 12:27:06;;;;;;;47.78;26.42;;;;;;;4.59;80.70;101273.38;1684961;85;21171;-72
2021/01/04 12:29:34;;;;;;;45.63;24.55;;;;;;;4.63;80.80;101275.92;1710882;81;22272;-72